Time;durP1;ratioP1;P1;durP2;ratioP2;P2;SDS_P1;SDS_P2;PMS_P1;PMS_P2;Temp;Humidity;BMP_temperature;BMP_pressure;BME280_temperature;BME280_humidity;BME280_pressure;Samples;Min_cycle;Max_cycle;Signal;HPM_P1;HPM_P2
2023/08/08 00:02:13;;;;;;;5.25;2.08;;;;;;;12.12;92.95;100783.31;4902805;29;20909;-77
2023/08/08 00:04:39;;;;;;;9.70;2.55;;;;;;;12.08;93.23;100776.94;4905299;29;20078;-79
2023/08/08 00:07:06;;;;;;;5.38;2.45;;;;;;;12.04;92.50;100775.88;4874413;29;20032;-79
2023/08/08 00:09:31;;;;;;;4.05;2.20;;;;;;;12.06;92.71;100776.41;4905959;29;20401;-78
2023/08/08 00:11:57;;;;;;;6.40;2.33;;;;;;;12.10;91.40;100766.69;4887664;29;20048;-75
2023/08/08 00:14:24;;;;;;;7.10;2.58;;;;;;;12.12;92.40;100788.69;4856924;29;20036;-77
2023/08/08 00:16:49;;;;;;;4.07;2.30;;;;;;;12.07;91.17;100782.56;4890569;29;20052;-78
2023/08/08 00:19:15;;;;;;;6.05;2.58;;;;;;;12.07;93.21;100783.38;4887396;29;20032;-79
2023/08/08 00:21:41;;;;;;;7.75;2.45;;;;;;;12.09;93.90;100786.56;4890266;29;20902;-79
2023/08/08 00:24:06;;;;;;;6.20;2.08;;;;;;;12.03;93.78;100788.47;4907994;29;20647;-81
2023/08/08 00:26:33;;;;;;;7.15;2.33;;;;;;;12.03;94.56;100790.38;4905563;29;20092;-79
2023/08/08 00:28:59;;;;;;;7.20;1.90;;;;;;;12.05;94.73;100795.44;4889308;29;20042;-78
2023/08/08 00:31:24;;;;;;;10.23;3.10;;;;;;;12.01;94.83;100789.84;4888080;29;20040;-77
2023/08/08 00:33:51;;;;;;;4.00;1.88;;;;;;;11.94;94.06;100775.94;4871784;29;20043;-79
2023/08/08 00:36:17;;;;;;;7.78;2.60;;;;;;;11.96;94.48;100769.22;4876166;29;20040;-79
2023/08/08 00:38:43;;;;;;;4.40;2.05;;;;;;;11.97;94.88;100772.69;4902001;29;20139;-78
2023/08/08 00:41:09;;;;;;;5.30;2.25;;;;;;;12.00;95.08;100772.16;4906819;29;20043;-79
2023/08/08 00:43:35;;;;;;;6.95;2.78;;;;;;;11.97;95.08;100764.63;4892212;29;20103;-77
2023/08/08 00:46:01;;;;;;;8.55;2.58;;;;;;;11.98;95.14;100763.56;4907143;29;20044;-81
2023/08/08 00:48:26;;;;;;;;;;;;;;;11.97;95.96;100757.38;4874989;29;20044;-81
2023/08/08 00:50:52;;;;;;;8.13;2.63;;;;;;;11.95;96.13;100756.06;4902122;29;20300;-78
2023/08/08 00:53:27;;;;;;;6.38;2.67;;;;;;;11.96;96.12;100760.34;4873096;29;20040;-80
2023/08/08 00:55:54;;;;;;;8.38;2.55;;;;;;;11.91;95.82;100763.06;4902861;29;20028;-77
2023/08/08 00:58:21;;;;;;;5.07;2.33;;;;;;;11.90;96.22;100761.47;4899522;29;20051;-80
2023/08/08 01:00:46;;;;;;;6.40;2.60;;;;;;;11.91;96.31;100752.31;4893603;29;20107;-78
2023/08/08 01:03:12;;;;;;;4.68;2.42;;;;;;;11.90;96.32;100748.03;4874314;29;20059;-79
2023/08/08 01:05:43;;;;;;;5.68;2.67;;;;;;;11.87;96.03;100753.97;4871308;29;20082;-78
2023/08/08 01:08:15;;;;;;;7.63;2.53;;;;;;;11.82;95.40;100756.69;4900706;29;20042;-79
2023/08/08 01:10:43;;;;;;;10.23;2.95;;;;;;;11.78;95.73;100745.66;4877244;29;20119;-78
2023/08/08 01:13:15;;;;;;;4.93;2.28;;;;;;;11.79;96.06;100738.44;4886377;29;20068;-78
2023/08/08 01:15:41;;;;;;;8.15;2.03;;;;;;;11.80;95.88;100734.69;4899662;29;20086;-77
2023/08/08 01:18:09;;;;;;;6.70;2.40;;;;;;;11.80;96.28;100724.75;4891407;29;20047;-79
2023/08/08 01:20:37;;;;;;;6.47;2.90;;;;;;;11.83;96.45;100739.50;4908873;29;20036;-77
2023/08/08 01:23:09;;;;;;;4.22;2.38;;;;;;;11.80;96.35;100740.03;4886727;29;20043;-79
2023/08/08 01:25:35;;;;;;;7.90;2.80;;;;;;;11.81;96.80;100745.16;4903775;29;20059;-80
2023/08/08 01:28:01;;;;;;;6.88;2.35;;;;;;;11.81;97.14;100737.09;4904140;29;20059;-76
2023/08/08 01:30:28;;;;;;;5.50;2.90;;;;;;;11.80;96.97;100730.09;4891869;29;20041;-74
2023/08/08 01:32:54;;;;;;;8.60;2.70;;;;;;;11.83;97.07;100728.78;4892853;29;20035;-79
2023/08/08 01:35:20;;;;;;;7.50;2.80;;;;;;;11.80;96.92;100734.69;4892170;29;20065;-76
2023/08/08 01:37:52;;;;;;;9.40;2.83;;;;;;;11.80;96.77;100734.69;4917005;29;20107;-79
2023/08/08 01:40:19;;;;;;;;;;;;;;;11.82;97.08;100737.91;4881686;29;20127;-74
2023/08/08 01:42:48;;;;;;;8.00;2.47;;;;;;;11.83;96.95;100728.78;4883759;29;20392;-74
2023/08/08 01:45:15;;;;;;;4.85;2.40;;;;;;;11.83;96.87;100729.56;4897630;29;20035;-76
2023/08/08 01:47:41;;;;;;;3.92;2.58;;;;;;;11.82;96.59;100721.81;4884959;29;20032;-73
2023/08/08 01:50:08;;;;;;;8.65;2.65;;;;;;;11.80;97.18;100721.25;4871024;29;20036;-74
2023/08/08 01:52:34;;;;;;;4.97;2.95;;;;;;;11.80;97.14;100723.94;4903475;29;20040;-74
2023/08/08 01:55:02;;;;;;;7.60;2.58;;;;;;;11.80;97.29;100723.94;4904047;29;20028;-73
2023/08/08 01:57:28;;;;;;;5.90;2.50;;;;;;;11.77;96.87;100731.44;4889022;29;20063;-74
2023/08/08 01:59:54;;;;;;;;;;;;;;;11.77;96.47;100736.81;4905822;29;20620;-72
2023/08/08 02:02:20;;;;;;;3.40;2.08;;;;;;;11.77;96.60;100730.66;4888961;29;19923;-74
2023/08/08 02:04:47;;;;;;;5.75;2.40;;;;;;;11.76;96.69;100729.84;4890058;29;20040;-74
2023/08/08 02:07:14;;;;;;;5.00;2.38;;;;;;;11.74;96.24;100726.66;4903661;29;20131;-74
2023/08/08 02:09:39;;;;;;;7.45;2.47;;;;;;;11.71;96.25;100711.09;4874946;29;20113;-74
2023/08/08 02:12:05;;;;;;;6.85;2.00;;;;;;;11.72;96.50;100717.28;4906730;29;20044;-73
2023/08/08 02:14:32;;;;;;;6.07;2.55;;;;;;;11.65;96.30;100714.91;4890167;29;21095;-76
2023/08/08 02:16:58;;;;;;;5.88;2.42;;;;;;;11.69;96.74;100710.56;4888702;29;20116;-75
2023/08/08 02:19:25;;;;;;;6.03;2.03;;;;;;;11.68;96.84;100705.50;4881675;29;20838;-76
2023/08/08 02:21:53;;;;;;;6.05;1.88;;;;;;;11.66;97.15;100702.28;4874583;29;20151;-75
2023/08/08 02:24:20;;;;;;;6.57;1.83;;;;;;;11.68;96.76;100706.28;4876880;29;20409;-75
2023/08/08 02:26:45;;;;;;;6.03;2.40;;;;;;;11.67;97.08;100709.25;4903709;29;21062;-76
2023/08/08 02:29:11;;;;;;;3.63;1.73;;;;;;;11.69;97.09;100709.78;4889996;29;20123;-76
2023/08/08 02:31:38;;;;;;;3.50;1.83;;;;;;;11.68;97.37;100703.59;4879462;29;20767;-75
2023/08/08 02:34:04;;;;;;;7.55;2.17;;;;;;;11.68;97.57;100695.56;4905129;29;20043;-75
2023/08/08 02:36:29;;;;;;;5.57;2.40;;;;;;;11.70;97.74;100697.97;4887784;29;20040;-75
2023/08/08 02:38:55;;;;;;;4.40;1.85;;;;;;;11.71;97.89;100683.47;4891556;29;20481;-74
2023/08/08 02:41:21;;;;;;;4.38;1.80;;;;;;;11.74;98.06;100693.66;4904189;29;21376;-75
2023/08/08 02:43:47;;;;;;;;;;;;;;;11.71;97.94;100702.25;4891664;29;21830;-75
2023/08/08 02:46:13;;;;;;;6.80;2.08;;;;;;;11.69;97.95;100702.53;4878926;29;19930;-73
2023/08/08 02:48:39;;;;;;;5.82;2.33;;;;;;;11.72;97.84;100696.63;4873579;29;20184;-75
2023/08/08 02:51:05;;;;;;;5.25;1.80;;;;;;;11.71;97.86;100684.25;4889795;29;20036;-76
2023/08/08 02:53:31;;;;;;;7.05;1.88;;;;;;;11.73;97.92;100698.22;4879289;29;20051;-75
2023/08/08 02:55:57;;;;;;;4.95;2.17;;;;;;;11.71;98.14;100684.25;4890202;29;20036;-76
2023/08/08 02:58:24;;;;;;;4.72;1.77;;;;;;;11.73;97.63;100684.81;4903236;29;20082;-73
2023/08/08 03:00:50;;;;;;;6.00;1.80;;;;;;;11.66;97.48;100687.00;4907778;29;20044;-75
2023/08/08 03:03:17;;;;;;;4.80;1.52;;;;;;;11.66;97.22;100691.56;4889937;29;20470;-77
2023/08/08 03:05:45;;;;;;;3.42;2.15;;;;;;;11.66;96.80;100681.63;4890871;29;20063;-74
2023/08/08 03:08:12;;;;;;;3.45;1.73;;;;;;;11.66;97.11;100678.16;4893122;29;20038;-75
2023/08/08 03:10:38;;;;;;;5.20;2.15;;;;;;;11.67;97.26;100683.22;4891712;29;20036;-75
2023/08/08 03:13:04;;;;;;;4.05;1.65;;;;;;;11.67;97.19;100675.19;4896069;29;20040;-75
2023/08/08 03:15:32;;;;;;;4.68;2.10;;;;;;;11.68;97.42;100678.66;4887478;29;20040;-76
2023/08/08 03:17:59;;;;;;;4.68;1.77;;;;;;;11.69;97.48;100674.91;4901777;29;20063;-75
2023/08/08 03:20:25;;;;;;;8.50;1.92;;;;;;;11.67;97.70;100675.19;4892124;29;20631;-75
2023/08/08 03:22:50;;;;;;;5.97;1.50;;;;;;;11.67;97.87;100679.75;4906086;29;20043;-75
2023/08/08 03:25:16;;;;;;;7.70;1.95;;;;;;;11.69;97.88;100683.75;4906290;29;20041;-75
2023/08/08 03:27:43;;;;;;;5.85;2.08;;;;;;;11.69;97.64;100670.34;4909445;29;20485;-76
2023/08/08 03:30:12;;;;;;;3.60;1.80;;;;;;;11.69;97.56;100681.06;4892243;29;20529;-73
2023/08/08 03:32:41;;;;;;;3.40;1.80;;;;;;;11.70;97.60;100671.13;4904950;29;20033;-76
2023/08/08 03:35:09;;;;;;;4.85;2.00;;;;;;;11.70;97.86;100665.78;4925179;29;20143;-76
2023/08/08 03:37:37;;;;;;;3.72;2.20;;;;;;;11.70;97.84;100669.25;4903451;29;20040;-77
2023/08/08 03:40:03;;;;;;;5.03;2.35;;;;;;;11.73;97.87;100679.44;4907649;29;20088;-75
2023/08/08 03:42:29;;;;;;;3.28;1.85;;;;;;;11.74;97.91;100672.19;4905853;29;20048;-77
2023/08/08 03:44:56;;;;;;;4.28;1.90;;;;;;;11.76;97.92;100665.44;4901440;29;20037;-78
2023/08/08 03:47:22;;;;;;;8.48;1.70;;;;;;;11.77;98.08;100661.69;4885291;29;20044;-79
2023/08/08 03:49:48;;;;;;;4.97;2.00;;;;;;;11.81;97.65;100664.66;4890338;29;20037;-78
2023/08/08 03:52:13;;;;;;;5.45;2.05;;;;;;;11.85;97.82;100667.56;4883157;29;20059;-78
2023/08/08 03:54:39;;;;;;;5.78;2.42;;;;;;;11.84;97.85;100671.34;4889415;29;20400;-79
2023/08/08 03:57:05;;;;;;;3.70;1.90;;;;;;;11.84;98.03;100660.59;4892095;29;20498;-77
2023/08/08 03:59:30;;;;;;;4.93;1.65;;;;;;;11.83;97.94;100664.38;4892464;29;20367;-78
2023/08/08 04:01:56;;;;;;;4.45;1.58;;;;;;;11.86;97.95;100655.78;4906505;29;20032;-77
2023/08/08 04:04:22;;;;;;;3.53;1.75;;;;;;;11.83;97.76;100651.75;4888236;29;20043;-78
2023/08/08 04:06:48;;;;;;;;;;;;;;;11.84;98.14;100660.59;4895027;29;20523;-76
2023/08/08 04:09:13;;;;;;;2.63;1.63;;;;;;;11.82;97.91;100658.22;4890047;29;19919;-78
2023/08/08 04:11:39;;;;;;;7.00;2.45;;;;;;;11.85;98.09;100656.84;4887997;29;20036;-75
2023/08/08 04:14:05;;;;;;;2.80;1.80;;;;;;;11.85;97.83;100651.47;4890794;29;20033;-77
2023/08/08 04:16:30;;;;;;;4.40;1.75;;;;;;;11.87;97.86;100654.69;4905272;29;20052;-75
2023/08/08 04:18:56;;;;;;;;;;;;;;;11.88;97.99;100650.94;4902936;29;20055;-75
2023/08/08 04:21:23;;;;;;;6.38;2.00;;;;;;;11.84;98.22;100645.31;4879211;29;20638;-76
2023/08/08 04:23:48;;;;;;;3.90;2.22;;;;;;;11.85;97.98;100656.84;4898533;29;20051;-74
2023/08/08 04:26:14;;;;;;;4.82;1.73;;;;;;;11.84;98.07;100652.56;4874165;29;20044;-74
2023/08/08 04:28:41;;;;;;;7.90;2.05;;;;;;;11.83;97.45;100659.00;4905879;29;20418;-75
2023/08/08 04:31:06;;;;;;;;;;;;;;;11.83;97.57;100648.28;4906414;29;20137;-76
2023/08/08 04:33:32;;;;;;;3.72;1.73;;;;;;;11.79;97.54;100652.59;4874621;29;20005;-76
2023/08/08 04:35:58;;;;;;;5.70;1.90;;;;;;;11.79;97.61;100655.25;4875446;29;20123;-75
2023/08/08 04:38:24;;;;;;;4.72;1.70;;;;;;;11.80;97.35;100654.19;4883073;29;20405;-74
2023/08/08 04:40:50;;;;;;;3.67;2.20;;;;;;;11.79;97.36;100657.94;4887022;29;20044;-74
2023/08/08 04:43:16;;;;;;;5.72;2.22;;;;;;;11.78;97.23;100657.13;4877014;29;20032;-75
2023/08/08 04:45:41;;;;;;;;;;;;;;;11.79;97.41;100653.38;4903961;29;20047;-73
2023/08/08 04:48:07;;;;;;;3.78;1.77;;;;;;;11.76;97.38;100656.59;4890694;29;19927;-74
2023/08/08 04:50:32;;;;;;;3.88;1.95;;;;;;;11.77;97.61;100655.53;4919346;29;20032;-73
2023/08/08 04:52:58;;;;;;;2.60;1.52;;;;;;;11.75;97.44;100655.81;4889215;29;20494;-72
2023/08/08 04:55:26;;;;;;;3.88;1.92;;;;;;;11.75;97.79;100653.13;4884872;29;20104;-73
2023/08/08 04:57:51;;;;;;;4.78;2.60;;;;;;;11.80;97.98;100668.41;4871160;29;20036;-73
2023/08/08 05:00:17;;;;;;;6.55;1.60;;;;;;;11.83;97.94;100656.31;4889875;29;20465;-74
2023/08/08 05:02:43;;;;;;;3.58;2.00;;;;;;;11.85;98.13;100659.53;4897188;29;20163;-75
2023/08/08 05:05:10;;;;;;;;;;;;;;;11.91;97.95;100656.50;4927057;29;20036;-71
2023/08/08 05:07:37;;;;;;;4.55;1.90;;;;;;;12.00;98.00;100649.47;4910185;29;20021;-74
2023/08/08 05:10:03;;;;;;;4.20;1.80;;;;;;;12.07;98.25;100649.16;4909324;29;20245;-75
2023/08/08 05:12:30;;;;;;;4.95;2.22;;;;;;;12.12;98.67;100646.41;4923887;29;20068;-73
2023/08/08 05:14:55;;;;;;;4.40;2.63;;;;;;;12.19;98.56;100646.09;4894295;29;20126;-73
2023/08/08 05:17:21;;;;;;;5.10;2.00;;;;;;;12.24;98.74;100641.47;4900187;29;20364;-75
2023/08/08 05:19:47;;;;;;;6.60;2.60;;;;;;;12.35;98.18;100633.34;4909090;29;20040;-75
2023/08/08 05:22:14;;;;;;;6.05;2.20;;;;;;;12.45;98.18;100646.66;4927161;29;20044;-75
2023/08/08 05:24:40;;;;;;;4.82;2.22;;;;;;;12.53;98.56;100646.03;4893615;29;20044;-74
2023/08/08 05:27:06;;;;;;;3.25;2.05;;;;;;;12.58;98.39;100654.03;4897100;29;20040;-75
2023/08/08 05:29:32;;;;;;;4.18;1.80;;;;;;;12.58;97.81;100632.53;4917550;29;20071;-76
2023/08/08 05:31:58;;;;;;;5.00;2.15;;;;;;;12.64;98.23;100652.91;4909869;29;20044;-76
2023/08/08 05:34:26;;;;;;;4.78;2.10;;;;;;;12.67;97.32;100646.97;4909899;29;20494;-75
2023/08/08 05:36:51;;;;;;;6.60;2.22;;;;;;;12.81;96.82;100641.72;4877993;29;20043;-78
2023/08/08 05:39:17;;;;;;;4.45;1.70;;;;;;;12.94;96.76;100640.19;4895494;29;20036;-76
2023/08/08 05:41:43;;;;;;;6.82;1.90;;;;;;;13.02;96.33;100642.25;4910387;29;20037;-74
2023/08/08 05:44:08;;;;;;;5.22;2.13;;;;;;;13.08;96.62;100630.38;4882632;29;20136;-74
2023/08/08 05:46:34;;;;;;;4.47;1.63;;;;;;;13.15;97.08;100644.25;4903592;29;20048;-75
2023/08/08 05:49:01;;;;;;;3.55;1.60;;;;;;;13.18;96.93;100645.56;4916877;29;20044;-76
2023/08/08 05:51:27;;;;;;;5.78;1.80;;;;;;;13.14;92.18;100639.97;4914616;29;20044;-74
2023/08/08 05:53:53;;;;;;;3.65;1.60;;;;;;;13.20;93.22;100638.81;4897159;29;20092;-76
2023/08/08 05:56:19;;;;;;;3.20;1.85;;;;;;;13.26;95.42;100640.34;4912129;29;20040;-76
2023/08/08 05:58:45;;;;;;;5.45;1.55;;;;;;;13.17;94.00;100631.31;4892457;29;20405;-75
2023/08/08 06:01:11;;;;;;;;;;;;;;;13.17;92.05;100643.94;4915245;29;20052;-74
2023/08/08 06:03:37;;;;;;;5.25;1.80;;;;;;;13.17;93.88;100646.66;4896242;29;19919;-74
2023/08/08 06:06:04;;;;;;;5.28;1.83;;;;;;;13.14;94.30;100645.34;4884732;29;20036;-75
2023/08/08 06:08:31;;;;;;;3.83;1.67;;;;;;;13.19;94.61;100642.56;4899203;29;20063;-75
2023/08/08 06:10:57;;;;;;;4.05;2.20;;;;;;;13.27;94.53;100644.63;4898202;29;20067;-73
2023/08/08 06:13:22;;;;;;;6.43;1.90;;;;;;;13.37;93.08;100644.50;4929071;29;20076;-76
2023/08/08 06:15:48;;;;;;;;;;;;;;;13.41;94.01;100650.09;4883013;29;20069;-75
2023/08/08 06:18:13;;;;;;;4.45;2.08;;;;;;;13.39;95.24;100642.31;4910026;29;19919;-76
2023/08/08 06:20:39;;;;;;;6.88;1.90;;;;;;;13.42;95.31;100640.97;4893514;29;20095;-72
2023/08/08 06:23:05;;;;;;;;;;;;;;;13.44;95.74;100635.28;4907429;29;20035;-76
2023/08/08 06:25:30;;;;;;;3.63;2.03;;;;;;;13.38;94.99;100639.94;4893701;29;20003;-75
2023/08/08 06:27:57;;;;;;;;;;;;;;;13.38;95.01;100646.09;4894121;29;20047;-72
2023/08/08 06:30:23;;;;;;;3.92;1.92;;;;;;;13.36;95.95;100648.28;4881181;29;19927;-76
2023/08/08 06:32:49;;;;;;;3.90;2.20;;;;;;;13.41;96.59;100643.91;4910976;29;20036;-76
2023/08/08 06:35:16;;;;;;;3.72;2.05;;;;;;;13.55;95.69;100639.44;4893946;29;20504;-77
2023/08/08 06:37:43;;;;;;;5.43;2.20;;;;;;;13.72;93.52;100641.59;4904297;29;20088;-74
2023/08/08 06:40:10;;;;;;;5.43;1.95;;;;;;;13.90;92.32;100646.94;4881079;29;20220;-76
2023/08/08 06:42:55;;;;;;;5.80;2.00;;;;;;;14.11;89.88;100638.53;4906272;29;20116;-77
2023/08/08 06:45:39;;;;;;;2.78;1.40;;;;;;;14.37;90.36;100633.50;4909221;29;20047;-77
2023/08/08 06:48:05;;;;;;;2.60;1.88;;;;;;;14.35;91.07;100625.69;4907064;29;20044;-75
2023/08/08 06:50:31;;;;;;;2.97;1.75;;;;;;;14.31;90.13;100640.09;4893628;29;20059;-76
2023/08/08 06:52:57;;;;;;;4.82;1.95;;;;;;;14.24;90.12;100640.47;4895149;29;20055;-74
2023/08/08 06:55:22;;;;;;;;;;;;;;;14.16;89.37;100635.75;4911402;29;20104;-76
2023/08/08 06:57:48;;;;;;;3.58;1.77;;;;;;;14.25;92.13;100625.09;4895565;29;19922;-77
2023/08/08 07:00:13;;;;;;;;;;;;;;;14.31;92.51;100630.09;4897341;29;20202;-75
2023/08/08 07:02:39;;;;;;;3.92;1.70;;;;;;;14.44;91.56;100623.94;4901886;29;20358;-76
2023/08/08 07:05:06;;;;;;;;;;;;;;;14.64;89.86;100625.47;4897214;29;20067;-78
2023/08/08 07:07:33;;;;;;;4.60;1.70;;;;;;;14.79;90.83;100629.75;4898714;29;19927;-75
2023/08/08 07:09:59;;;;;;;3.83;1.70;;;;;;;15.00;88.88;100630.16;4897865;29;20036;-73
2023/08/08 07:12:25;;;;;;;5.25;2.20;;;;;;;15.07;91.13;100629.75;4889086;29;20047;-77
2023/08/08 07:14:51;;;;;;;;;;;;;;;15.06;91.80;100630.84;4916580;29;20020;-77
2023/08/08 07:17:17;;;;;;;3.97;1.80;;;;;;;14.94;89.94;100634.03;4912154;29;19926;-78
2023/08/08 07:19:42;;;;;;;;;;;;;;;14.82;86.35;100623.75;4902332;29;20044;-75
2023/08/08 07:22:08;;;;;;;4.72;1.50;;;;;;;14.84;87.21;100618.88;4897016;29;20014;-77
2023/08/08 07:24:34;;;;;;;;;;;;;;;14.85;86.91;100628.56;4898642;29;20378;-75
2023/08/08 07:27:01;;;;;;;3.05;2.10;;;;;;;14.90;86.84;100617.69;4909723;29;20388;-77
2023/08/08 07:29:27;;;;;;;2.70;1.40;;;;;;;15.02;88.56;100612.56;4897257;29;20036;-76
2023/08/08 07:31:53;;;;;;;;;;;;;;;15.14;88.42;100608.53;4911633;29;20040;-73
2023/08/08 07:34:20;;;;;;;6.15;1.70;;;;;;;15.13;89.76;100613.16;4908542;29;20337;-75
2023/08/08 07:36:46;;;;;;;2.72;1.27;;;;;;;15.08;87.89;100601.66;4893598;29;20524;-77
2023/08/08 07:39:13;;;;;;;2.38;1.30;;;;;;;14.95;87.29;100600.59;4897273;29;20046;-76
2023/08/08 07:41:38;;;;;;;7.13;1.70;;;;;;;14.97;88.33;100596.50;4899785;29;20040;-76
2023/08/08 07:44:04;;;;;;;;;;;;;;;15.02;85.93;100590.97;4884836;29;20046;-73
2023/08/08 07:46:31;;;;;;;3.83;1.50;;;;;;;15.20;85.04;100601.94;4924182;29;19922;-76
2023/08/08 07:48:59;;;;;;;4.30;1.80;;;;;;;15.29;88.67;100609.00;4902328;29;20048;-73
2023/08/08 07:51:25;;;;;;;4.55;1.50;;;;;;;15.24;85.56;100597.53;4890205;29;20036;-76
2023/08/08 07:53:51;;;;;;;5.78;1.70;;;;;;;15.48;86.51;100599.94;4903270;29;20044;-74
2023/08/08 07:56:17;;;;;;;6.35;1.83;;;;;;;15.63;87.06;100594.22;4897882;29;20036;-75
2023/08/08 07:58:43;;;;;;;;;;;;;;;15.68;85.91;100598.72;4908958;29;20820;-76
2023/08/08 08:01:09;;;;;;;3.83;1.50;;;;;;;15.73;84.67;100598.59;4893016;29;19919;-74
2023/08/08 08:03:36;;;;;;;;;;;;;;;15.74;85.15;100594.78;4890873;29;21036;-74
2023/08/08 08:06:02;;;;;;;5.43;2.40;;;;;;;15.82;85.83;100596.75;4904578;29;20087;-74
2023/08/08 08:08:29;;;;;;;7.30;1.38;;;;;;;15.87;83.68;100593.91;4907303;29;20075;-73
2023/08/08 08:10:54;;;;;;;;;;;;;;;15.91;87.43;100586.78;4907620;29;20115;-74
2023/08/08 08:13:20;;;;;;;4.35;1.60;;;;;;;15.79;84.50;100586.56;4919537;29;19926;-75
2023/08/08 08:15:47;;;;;;;;;;;;;;;15.81;82.82;100595.16;4905428;29;20737;-74
2023/08/08 08:18:16;;;;;;;3.80;1.52;;;;;;;15.75;84.39;100585.56;4906006;29;19923;-75
2023/08/08 08:20:46;;;;;;;4.15;1.50;;;;;;;15.68;84.85;100590.59;4910292;29;20188;-74
2023/08/08 08:23:12;;;;;;;6.30;1.40;;;;;;;15.64;83.52;100595.00;4882732;29;20293;-74
2023/08/08 08:25:37;;;;;;;;;;;;;;;15.60;85.03;100596.72;4890994;29;20509;-74
2023/08/08 08:28:03;;;;;;;3.30;1.65;;;;;;;15.50;83.28;100601.22;4888681;29;20579;-73
2023/08/08 08:30:29;;;;;;;6.13;1.50;;;;;;;15.42;81.81;100593.88;4893979;29;20047;-72
2023/08/08 08:32:56;;;;;;;;;;;;;;;15.38;83.22;100592.91;4906533;29;20040;-73
2023/08/08 08:35:22;;;;;;;8.30;1.85;;;;;;;15.36;86.75;100611.28;4890690;29;19978;-73
2023/08/08 08:37:47;;;;;;;;;;;;;;;15.27;84.67;100608.50;4891170;29;20433;-73
2023/08/08 08:40:13;;;;;;;3.50;1.58;;;;;;;15.30;84.52;100599.78;4887799;29;19971;-72
2023/08/08 08:42:40;;;;;;;;;;;;;;;15.29;85.03;100602.81;4900690;29;20043;-76
2023/08/08 08:45:08;;;;;;;4.43;2.00;;;;;;;15.30;84.80;100607.88;4878704;29;19919;-73
2023/08/08 08:47:36;;;;;;;4.03;1.73;;;;;;;15.33;84.47;100617.28;4894051;29;20046;-73
2023/08/08 08:50:03;;;;;;;4.20;1.50;;;;;;;15.41;86.00;100624.66;4888395;29;20049;-75
2023/08/08 08:52:29;;;;;;;4.32;1.13;;;;;;;15.44;84.99;100607.84;4905480;29;20040;-75
2023/08/08 08:54:55;;;;;;;;;;;;;;;15.37;80.82;100618.25;4872902;29;20413;-72
2023/08/08 08:57:24;;;;;;;3.17;1.40;;;;;;;15.45;82.40;100619.47;4904410;29;19923;-73
2023/08/08 08:59:51;;;;;;;3.50;1.40;;;;;;;15.51;82.58;100613.66;4882578;29;20071;-75
2023/08/08 09:02:18;;;;;;;3.80;1.40;;;;;;;15.59;80.93;100616.72;4904410;29;20028;-72
2023/08/08 09:04:45;;;;;;;3.88;1.20;;;;;;;15.77;81.62;100607.66;4892897;29;20032;-73
2023/08/08 09:07:16;;;;;;;2.67;1.20;;;;;;;15.96;79.32;100612.88;4901422;29;20588;-74
2023/08/08 09:09:44;;;;;;;6.32;1.40;;;;;;;16.04;78.34;100625.63;4893343;29;20044;-73
2023/08/08 09:12:12;;;;;;;2.63;1.45;;;;;;;16.08;78.75;100632.00;4891181;29;20466;-74
2023/08/08 09:14:42;;;;;;;4.20;1.45;;;;;;;15.96;73.99;100631.78;4904894;29;20099;-73
2023/08/08 09:17:13;;;;;;;4.82;1.67;;;;;;;16.02;77.04;100622.44;4872262;29;20036;-73
2023/08/08 09:19:41;;;;;;;3.80;1.10;;;;;;;15.96;77.81;100616.38;4909672;29;20039;-73
2023/08/08 09:22:07;;;;;;;2.13;1.30;;;;;;;15.85;74.23;100631.25;4904733;29;20039;-73
2023/08/08 09:24:37;;;;;;;;;;;;;;;15.77;73.24;100623.84;4890268;29;20041;-75
2023/08/08 09:27:05;;;;;;;3.58;1.33;;;;;;;15.87;77.50;100628.22;4921160;29;19919;-72
2023/08/08 09:29:31;;;;;;;2.67;0.90;;;;;;;15.81;77.56;100622.94;4890391;29;20048;-73
2023/08/08 09:31:57;;;;;;;;;;;;;;;15.76;78.79;100625.75;4905474;29;20036;-73
2023/08/08 09:34:28;;;;;;;3.35;1.10;;;;;;;15.65;77.08;100637.13;4890129;29;20014;-73
2023/08/08 09:36:54;;;;;;;3.45;0.90;;;;;;;15.54;76.29;100634.63;4886344;29;20519;-76
2023/08/08 09:39:21;;;;;;;4.60;1.00;;;;;;;15.47;80.91;100634.25;4906314;29;20040;-73
2023/08/08 09:41:47;;;;;;;5.05;1.10;;;;;;;15.54;82.40;100634.63;4888729;29;20051;-74
2023/08/08 09:44:13;;;;;;;;;;;;;;;15.73;80.14;100620.97;4902160;29;20040;-73
2023/08/08 09:46:39;;;;;;;3.80;1.00;;;;;;;15.90;78.71;100624.91;4875870;29;19923;-73
2023/08/08 09:49:06;;;;;;;3.00;1.23;;;;;;;16.00;77.98;100624.66;4903089;29;20040;-74
2023/08/08 09:51:34;;;;;;;3.33;1.17;;;;;;;16.00;79.48;100619.25;4877319;29;20044;-73
2023/08/08 09:54:00;;;;;;;4.25;1.60;;;;;;;16.00;83.12;100630.84;4872124;29;20521;-72
2023/08/08 09:56:26;;;;;;;2.80;1.10;;;;;;;15.86;80.43;100618.53;4890089;29;20127;-73
2023/08/08 09:58:52;;;;;;;;;;;;;;;15.79;82.45;100629.75;4903042;29;20252;-73
2023/08/08 10:01:21;;;;;;;4.95;1.30;;;;;;;15.70;80.44;100628.88;4903084;29;19934;-73
2023/08/08 10:03:48;;;;;;;5.45;0.90;;;;;;;15.75;82.38;100626.06;4887932;29;20041;-73
2023/08/08 10:06:17;;;;;;;4.68;1.48;;;;;;;15.71;82.81;100633.97;4905444;29;20097;-74
2023/08/08 10:08:46;;;;;;;2.63;1.02;;;;;;;15.67;80.56;100633.00;4902497;29;20064;-73
2023/08/08 10:11:14;;;;;;;4.70;1.48;;;;;;;15.63;nan;100636.63;4895081;29;20103;-73
2023/08/08 10:13:48;;;;;;;4.20;1.00;;;;;;;15.54;80.15;100650.81;4905156;29;20040;-73
2023/08/08 10:16:17;;;;;;;4.07;1.55;;;;;;;15.48;80.75;100646.63;4893287;29;20083;-73
2023/08/08 10:18:42;;;;;;;4.05;1.02;;;;;;;15.46;84.11;100654.25;4883562;29;20135;-73
2023/08/08 10:21:10;;;;;;;;;;;;;;;15.33;84.89;100657.78;4890752;29;20034;-72
2023/08/08 10:23:37;;;;;;;3.40;1.13;;;;;;;15.07;84.44;100662.91;4906625;29;19922;-73
2023/08/08 10:26:18;;;;;;;2.67;1.20;;;;;;;14.87;86.27;100660.63;4914114;29;20032;-73
2023/08/08 10:28:55;;;;;;;4.10;1.35;;;;;;;14.69;87.24;100651.50;4923151;29;20047;-73
2023/08/08 10:31:21;;;;;;;3.70;1.20;;;;;;;14.61;87.03;100649.50;4906199;29;20028;-74
2023/08/08 10:33:47;;;;;;;4.05;1.33;;;;;;;14.54;87.21;100654.50;4913184;29;20207;-73
2023/08/08 10:36:13;;;;;;;;;;;;;;;14.50;89.47;100658.91;4922275;29;20859;-76
2023/08/08 10:38:43;;;;;;;5.43;1.05;;;;;;;14.19;88.15;100648.63;4894779;29;19927;-77
2023/08/08 10:41:11;;;;;;;3.58;1.40;;;;;;;14.13;88.67;100647.13;4879932;29;20043;-75
2023/08/08 10:43:46;;;;;;;2.10;1.17;;;;;;;14.17;88.93;100640.84;4879567;29;20163;-72
2023/08/08 10:46:11;;;;;;;5.85;1.65;;;;;;;14.53;91.79;100623.28;4893456;29;20036;-75
2023/08/08 10:48:49;;;;;;;3.28;1.23;;;;;;;14.81;91.81;100624.06;4905658;29;20040;-76
2023/08/08 10:51:15;;;;;;;4.75;1.70;;;;;;;14.92;91.58;100628.97;4908733;29;20119;-74
2023/08/08 10:53:43;;;;;;;;;;;;;;;15.05;93.33;100631.94;4908540;29;20055;-75
2023/08/08 10:56:13;;;;;;;5.32;1.95;;;;;;;15.06;92.40;100628.16;4890758;29;19919;-75
2023/08/08 10:58:47;;;;;;;2.47;1.40;;;;;;;15.16;91.65;100627.91;4889238;29;20040;-74
2023/08/08 11:01:14;;;;;;;5.32;1.30;;;;;;;15.18;90.88;100625.72;4875854;29;20067;-74
2023/08/08 11:03:41;;;;;;;4.57;1.35;;;;;;;15.21;91.86;100638.59;4892243;29;20582;-76
2023/08/08 11:06:08;;;;;;;3.08;1.50;;;;;;;15.18;91.64;100636.53;4893389;29;20113;-74
2023/08/08 11:08:38;;;;;;;2.53;1.10;;;;;;;15.09;91.44;100636.41;4893719;29;20067;-79
2023/08/08 11:11:04;;;;;;;2.92;1.20;;;;;;;14.99;89.01;100640.13;4891858;29;20044;-77
2023/08/08 11:13:30;;;;;;;4.68;1.05;;;;;;;14.95;89.97;100639.13;4893881;29;20074;-73
2023/08/08 11:15:56;;;;;;;3.58;1.00;;;;;;;14.80;89.35;100630.56;4923367;29;20032;-76
2023/08/08 11:18:22;;;;;;;2.95;1.08;;;;;;;14.65;90.38;100629.75;4906870;29;20390;-76
2023/08/08 11:20:49;;;;;;;;;;;;;;;14.66;91.29;100638.66;4929792;23;20209;-77
2023/08/08 11:23:15;;;;;;;3.78;2.45;;;;;;;14.58;90.85;100636.66;4940581;28;19976;-74
2023/08/08 11:25:42;;;;;;;;;;;;;;;14.67;91.55;100642.94;4917879;28;20046;-76
2023/08/08 11:28:10;;;;;;;3.10;1.67;;;;;;;14.64;91.55;100640.84;4931487;28;20057;-76
2023/08/08 11:30:43;;;;;;;3.28;1.10;;;;;;;14.61;90.63;100650.31;4957683;28;20034;-78
2023/08/08 11:33:10;;;;;;;4.35;1.35;;;;;;;14.48;90.24;100646.50;4927426;28;20065;-78